Time;durP1;ratioP1;P1;durP2;ratioP2;P2;SDS_P1;SDS_P2;PMS_P1;PMS_P2;Temp;Humidity;BMP_temperature;BMP_pressure;BME280_temperature;BME280_humidity;BME280_pressure;Samples;Min_cycle;Max_cycle;Signal;HPM_P1;HPM_P2
2022/07/14 00:02:21;;;;;;;8.63;3.08;;;;;;;;;;5016660;28;20115;-77
2022/07/14 00:04:48;;;;;;;13.05;3.10;;;;;;;;;;5016409;28;20224;-78
2022/07/14 00:07:14;;;;;;;8.00;2.90;;;;;;;;;;5016300;28;20128;-78
2022/07/14 00:09:40;;;;;;;7.45;2.75;;;;;;;;;;5016301;28;20054;-78
2022/07/14 00:12:06;;;;;;;7.90;2.72;;;;;;;;;;5015985;28;20042;-78
2022/07/14 00:14:32;;;;;;;8.20;2.97;;;;;;;;;;5015860;28;20050;-79
2022/07/14 00:16:58;;;;;;;8.55;2.90;;;;;;;;;;5016309;28;20050;-78
2022/07/14 00:19:24;;;;;;;5.50;2.50;;;;;;;;;;5016069;28;20125;-78
2022/07/14 00:21:50;;;;;;;6.57;2.65;;;;;;;;;;5016149;28;20125;-78
2022/07/14 00:24:16;;;;;;;10.63;2.92;;;;;;;;;;5015681;28;20457;-78
2022/07/14 00:26:42;;;;;;;6.72;2.78;;;;;;;;;;5015863;28;20413;-79
2022/07/14 00:29:09;;;;;;;5.35;2.60;;;;;;;;;;5015546;28;20133;-78
2022/07/14 00:31:35;;;;;;;6.85;2.70;;;;;;;;;;5015711;28;20117;-78
2022/07/14 00:34:01;;;;;;;7.63;2.75;;;;;;;;;;5015845;28;20037;-78
2022/07/14 00:36:27;;;;;;;8.18;2.63;;;;;;;;;;5015785;28;20199;-78
2022/07/14 00:38:54;;;;;;;5.32;2.70;;;;;;;;;;5015530;28;20045;-78
2022/07/14 00:41:20;;;;;;;7.90;2.58;;;;;;;;;;5015495;28;20064;-78
2022/07/14 00:43:46;;;;;;;6.05;2.47;;;;;;;;;;5015533;28;20524;-78
2022/07/14 00:46:12;;;;;;;7.03;2.30;;;;;;;;;;5030781;23;20090;-74
2022/07/14 00:48:38;;;;;;;5.85;2.45;;;;;;;;;;5022487;28;20053;-73
2022/07/14 00:51:04;;;;;;;10.27;3.17;;;;;;;;;;5022303;28;20023;-73
2022/07/14 00:53:30;;;;;;;6.45;2.55;;;;;;;;;;5022343;28;20061;-73
2022/07/14 00:55:57;;;;;;;7.43;2.60;;;;;;;;;;5022256;28;20018;-73
2022/07/14 00:58:23;;;;;;;5.45;2.67;;;;;;;;;;5021775;28;20033;-75
2022/07/14 01:00:49;;;;;;;4.82;2.25;;;;;;;;;;5022279;28;20016;-74
2022/07/14 01:03:15;;;;;;;4.18;2.30;;;;;;;;;;5022194;28;20018;-73
2022/07/14 01:05:42;;;;;;;6.53;2.63;;;;;;;;;;5022153;28;20018;-74
2022/07/14 01:08:08;;;;;;;6.05;2.45;;;;;;;;;;5022104;28;20074;-73
2022/07/14 01:10:34;;;;;;;6.72;2.83;;;;;;;;;;5021337;28;20050;-75
2022/07/14 01:13:02;;;;;;;7.35;2.33;;;;;;;;;;5021933;28;20023;-75
2022/07/14 01:15:28;;;;;;;5.57;2.38;;;;;;;;;;5021376;28;20031;-75
2022/07/14 01:17:54;;;;;;;4.47;2.38;;;;;;;;;;5021958;28;20026;-75
2022/07/14 01:20:20;;;;;;;6.22;2.10;;;;;;;;;;5021411;28;20030;-76
2022/07/14 01:22:47;;;;;;;5.22;2.28;;;;;;;;;;5021848;28;20021;-75
2022/07/14 01:25:13;;;;;;;7.55;2.42;;;;;;;;;;5021686;28;20014;-73
2022/07/14 01:27:39;;;;;;;5.90;2.40;;;;;;;;;;5021136;28;20082;-75
2022/07/14 01:30:06;;;;;;;7.95;2.50;;;;;;;;;;5021216;28;20019;-76
2022/07/14 01:32:32;;;;;;;5.43;2.15;;;;;;;;;;5021563;28;20094;-74
2022/07/14 01:34:59;;;;;;;6.32;2.35;;;;;;;;;;5021601;28;20018;-73
2022/07/14 01:37:25;;;;;;;5.25;2.28;;;;;;;;;;5021504;28;20033;-73
2022/07/14 01:39:51;;;;;;;3.53;2.15;;;;;;;;;;5021413;28;20045;-73
2022/07/14 01:42:18;;;;;;;6.63;2.28;;;;;;;;;;5020951;28;20022;-75
2022/07/14 01:44:44;;;;;;;6.07;2.28;;;;;;;;;;5024208;28;20049;-73
2022/07/14 01:47:10;;;;;;;4.43;2.53;;;;;;;;;;5041026;28;20041;-73
2022/07/14 01:49:36;;;;;;;6.63;2.22;;;;;;;;;;5040996;28;20033;-75
2022/07/14 01:52:02;;;;;;;5.20;2.38;;;;;;;;;;5040846;28;20086;-73
2022/07/14 01:54:29;;;;;;;5.78;2.25;;;;;;;;;;5040787;28;20010;-73
2022/07/14 01:56:55;;;;;;;5.68;2.45;;;;;;;;;;5040837;28;20044;-73
2022/07/14 01:59:21;;;;;;;6.07;2.35;;;;;;;;;;5040758;28;20010;-73
2022/07/14 02:01:50;;;;;;;4.88;2.10;;;;;;;;;;5040683;28;20049;-73
2022/07/14 02:04:17;;;;;;;5.95;2.60;;;;;;;;;;5023929;28;20049;-75
2022/07/14 02:06:46;;;;;;;7.20;2.60;;;;;;;;;;5040717;28;20074;-73
2022/07/14 02:09:12;;;;;;;7.38;2.38;;;;;;;;;;5040662;28;20032;-75
2022/07/14 02:14:24;;;;;;;4.95;2.42;;;;;;;;;;5040570;28;20029;-75
2022/07/14 02:16:50;;;;;;;7.90;2.83;;;;;;;;;;5040518;28;20017;-73
2022/07/14 02:19:17;;;;;;;8.50;3.08;;;;;;;;;;5023587;28;20045;-75
2022/07/14 02:21:43;;;;;;;8.70;2.72;;;;;;;;;;5040189;28;20025;-73
2022/07/14 02:24:09;;;;;;;6.53;2.55;;;;;;;;;;5039677;28;20028;-75
2022/07/14 02:26:36;;;;;;;6.50;2.22;;;;;;;;;;5040319;28;20073;-73
2022/07/14 02:29:04;;;;;;;7.50;2.67;;;;;;;;;;5023313;28;20022;-75
2022/07/14 02:31:30;;;;;;;7.80;2.50;;;;;;;;;;5040183;28;20041;-73
2022/07/14 02:33:56;;;;;;;4.68;2.60;;;;;;;;;;5023270;28;20021;-75
2022/07/14 02:36:23;;;;;;;6.10;2.50;;;;;;;;;;5040164;28;20014;-75
2022/07/14 02:38:49;;;;;;;6.40;2.60;;;;;;;;;;5040162;28;20045;-73
2022/07/14 02:41:16;;;;;;;3.95;2.22;;;;;;;;;;5040097;28;20026;-73
2022/07/14 02:43:42;;;;;;;10.90;2.63;;;;;;;;;;5007027;28;20028;-75
2022/07/14 02:46:08;;;;;;;6.88;2.40;;;;;;;;;;5039796;28;20041;-75
2022/07/14 02:48:34;;;;;;;5.78;2.25;;;;;;;;;;5023081;28;20045;-75
2022/07/14 02:51:03;;;;;;;5.95;2.38;;;;;;;;;;5039906;28;20030;-73
2022/07/14 02:53:29;;;;;;;5.75;2.47;;;;;;;;;;5039955;28;20049;-73
2022/07/14 02:55:55;;;;;;;3.95;2.25;;;;;;;;;;5039817;28;20029;-75
2022/07/14 02:58:21;;;;;;;6.50;2.40;;;;;;;;;;5022991;28;20056;-75
2022/07/14 03:00:48;;;;;;;4.78;2.20;;;;;;;;;;5039850;28;20010;-73
2022/07/14 03:03:14;;;;;;;4.60;2.60;;;;;;;;;;5039780;28;20022;-73
2022/07/14 03:05:40;;;;;;;6.22;2.47;;;;;;;;;;5022972;28;20056;-75
2022/07/14 03:08:06;;;;;;;5.35;2.35;;;;;;;;;;5039860;28;20057;-75
2022/07/14 03:10:32;;;;;;;5.88;2.58;;;;;;;;;;5022939;28;20022;-75
2022/07/14 03:12:58;;;;;;;7.40;2.55;;;;;;;;;;5039745;28;20057;-75
2022/07/14 03:15:24;;;;;;;6.03;2.83;;;;;;;;;;5039739;28;20022;-75
2022/07/14 03:17:50;;;;;;;5.90;2.45;;;;;;;;;;5039602;28;20025;-75
2022/07/14 03:20:16;;;;;;;6.95;2.70;;;;;;;;;;5039681;28;20010;-74
2022/07/14 03:22:43;;;;;;;5.22;2.67;;;;;;;;;;5039649;28;20018;-73
2022/07/14 03:25:09;;;;;;;7.20;2.85;;;;;;;;;;5039669;28;20074;-73
2022/07/14 03:27:35;;;;;;;5.50;2.65;;;;;;;;;;5039623;28;20070;-73
2022/07/14 03:30:03;;;;;;;5.57;2.42;;;;;;;;;;5039542;28;20017;-73
2022/07/14 03:32:29;;;;;;;7.43;2.90;;;;;;;;;;5039402;28;20085;-73
2022/07/14 03:34:55;;;;;;;5.63;2.95;;;;;;;;;;5041963;28;20010;-73
2022/07/14 03:37:21;;;;;;;3.20;2.30;;;;;;;;;;5043405;28;20018;-73
2022/07/14 03:39:47;;;;;;;6.22;2.60;;;;;;;;;;5043459;28;20073;-73
2022/07/14 03:42:13;;;;;;;6.97;2.95;;;;;;;;;;5026539;28;20073;-75
2022/07/14 03:44:39;;;;;;;5.88;2.65;;;;;;;;;;5043075;28;20017;-75
2022/07/14 03:47:05;;;;;;;5.22;2.58;;;;;;;;;;5043155;28;20041;-73
2022/07/14 03:49:31;;;;;;;7.80;2.90;;;;;;;;;;5043211;28;20033;-73
2022/07/14 03:51:57;;;;;;;5.63;2.58;;;;;;;;;;5043121;28;20024;-73
2022/07/14 03:54:23;;;;;;;6.45;2.58;;;;;;;;;;5010065;28;20022;-75
2022/07/14 03:56:49;;;;;;;7.55;2.67;;;;;;;;;;5026275;28;20057;-76
2022/07/14 03:59:15;;;;;;;4.30;2.45;;;;;;;;;;5026232;28;20022;-75
2022/07/14 04:01:41;;;;;;;6.30;2.67;;;;;;;;;;5042971;28;20049;-75
2022/07/14 04:04:08;;;;;;;7.35;2.80;;;;;;;;;;5026156;28;20025;-75
2022/07/14 04:06:34;;;;;;;7.00;2.60;;;;;;;;;;5042938;28;20010;-75
2022/07/14 04:09:00;;;;;;;4.45;2.22;;;;;;;;;;5026028;28;20078;-75
2022/07/14 04:11:26;;;;;;;6.47;2.60;;;;;;;;;;5042770;28;20061;-73
2022/07/14 04:13:52;;;;;;;5.28;2.42;;;;;;;;;;5042700;28;20070;-73
2022/07/14 04:16:18;;;;;;;4.57;2.60;;;;;;;;;;5042718;28;20014;-73
2022/07/14 04:18:45;;;;;;;7.53;2.83;;;;;;;;;;5025850;28;20053;-73
2022/07/14 04:21:11;;;;;;;7.70;2.70;;;;;;;;;;5042548;28;20052;-73
2022/07/14 04:23:37;;;;;;;6.32;2.83;;;;;;;;;;5042617;28;20022;-73
2022/07/14 04:26:05;;;;;;;6.80;2.95;;;;;;;;;;5042511;28;20135;-73
2022/07/14 04:28:31;;;;;;;5.72;2.90;;;;;;;;;;5025617;28;20025;-75
2022/07/14 04:30:57;;;;;;;6.53;3.05;;;;;;;;;;5042455;28;20041;-73
2022/07/14 04:33:24;;;;;;;6.50;2.97;;;;;;;;;;5042361;28;20013;-73
2022/07/14 04:35:50;;;;;;;7.90;2.63;;;;;;;;;;5042388;28;20021;-75
2022/07/14 04:38:16;;;;;;;7.53;2.65;;;;;;;;;;5042333;28;20014;-73
2022/07/14 04:40:49;;;;;;;5.78;2.50;;;;;;;;;;5042310;28;20073;-73
2022/07/14 04:43:15;;;;;;;7.60;2.90;;;;;;;;;;5042170;28;20018;-75
2022/07/14 04:45:41;;;;;;;6.82;2.75;;;;;;;;;;5040891;28;20070;-75
2022/07/14 04:48:07;;;;;;;7.65;2.70;;;;;;;;;;5042140;28;20018;-75
2022/07/14 04:53:18;;;;;;;6.15;2.78;;;;;;;;;;5025147;28;20037;-75
2022/07/14 04:55:46;;;;;;;9.07;3.45;;;;;;;;;;5025040;28;20037;-75
2022/07/14 04:58:13;;;;;;;7.07;2.72;;;;;;;;;;5041930;28;20107;-73
2022/07/14 05:00:39;;;;;;;7.10;3.40;;;;;;;;;;5041892;28;20092;-73
2022/07/14 05:03:05;;;;;;;7.75;2.97;;;;;;;;;;5041812;28;20014;-73
2022/07/14 05:05:31;;;;;;;7.50;2.90;;;;;;;;;;5041807;28;20030;-73
2022/07/14 05:07:59;;;;;;;7.35;2.63;;;;;;;;;;5041730;28;20045;-73
2022/07/14 05:10:25;;;;;;;6.93;2.78;;;;;;;;;;5041637;28;20014;-75
2022/07/14 05:12:51;;;;;;;6.32;2.58;;;;;;;;;;5041519;28;20106;-76
2022/07/14 05:15:17;;;;;;;5.10;2.70;;;;;;;;;;5041667;28;20030;-75
2022/07/14 05:17:44;;;;;;;5.45;2.70;;;;;;;;;;5024718;28;20010;-76
2022/07/14 05:20:13;;;;;;;6.03;2.90;;;;;;;;;;5041479;28;20018;-73
2022/07/14 05:22:41;;;;;;;5.03;2.63;;;;;;;;;;5041378;28;20021;-73
2022/07/14 05:25:08;;;;;;;5.03;2.50;;;;;;;;;;5041423;28;20018;-73
2022/07/14 05:27:34;;;;;;;4.50;2.50;;;;;;;;;;5041319;28;20068;-73
2022/07/14 05:30:00;;;;;;;6.32;2.88;;;;;;;;;;5041442;28;20030;-76
2022/07/14 05:32:26;;;;;;;5.90;2.53;;;;;;;;;;5041249;28;20061;-76
2022/07/14 05:34:52;;;;;;;4.50;2.55;;;;;;;;;;5041336;28;20029;-75
2022/07/14 05:37:18;;;;;;;7.13;2.33;;;;;;;;;;5041163;28;20077;-76
2022/07/14 05:39:44;;;;;;;4.47;2.47;;;;;;;;;;5008120;28;20026;-76
2022/07/14 05:42:11;;;;;;;5.57;2.55;;;;;;;;;;5041144;28;20021;-76
2022/07/14 05:44:38;;;;;;;4.93;2.30;;;;;;;;;;5040810;28;20026;-73
2022/07/14 05:47:04;;;;;;;6.22;2.20;;;;;;;;;;5024246;28;20065;-76
2022/07/14 05:49:30;;;;;;;4.22;2.20;;;;;;;;;;5040942;28;20024;-73
2022/07/14 05:51:56;;;;;;;4.90;2.17;;;;;;;;;;5040795;28;20064;-73
2022/07/14 05:54:22;;;;;;;5.75;2.20;;;;;;;;;;5040857;28;20018;-73
2022/07/14 05:56:48;;;;;;;6.05;2.33;;;;;;;;;;5023828;28;20011;-76
2022/07/14 05:59:14;;;;;;;4.30;2.60;;;;;;;;;;5040819;28;20124;-73
2022/07/14 06:01:40;;;;;;;7.72;2.47;;;;;;;;;;5040718;28;20022;-73
2022/07/14 06:04:06;;;;;;;5.45;2.50;;;;;;;;;;5040721;28;20048;-73
2022/07/14 06:06:32;;;;;;;5.07;2.20;;;;;;;;;;5040629;28;20014;-76
2022/07/14 06:08:58;;;;;;;4.05;2.33;;;;;;;;;;5040694;28;20049;-76
2022/07/14 06:11:25;;;;;;;7.10;2.47;;;;;;;;;;5040620;28;20022;-76
2022/07/14 06:13:51;;;;;;;7.00;2.40;;;;;;;;;;5040577;28;20056;-73
2022/07/14 06:16:17;;;;;;;6.97;2.40;;;;;;;;;;5023742;28;20052;-73
2022/07/14 06:18:43;;;;;;;5.72;2.30;;;;;;;;;;5040452;28;20029;-76
2022/07/14 06:21:09;;;;;;;5.65;2.20;;;;;;;;;;5040314;28;20073;-76
2022/07/14 06:23:36;;;;;;;5.38;2.30;;;;;;;;;;5040331;28;20018;-73
2022/07/14 06:26:09;;;;;;;6.40;2.03;;;;;;;;;;5040217;28;20029;-74
2022/07/14 06:28:35;;;;;;;7.05;2.20;;;;;;;;;;5040317;28;20018;-75
2022/07/14 06:31:01;;;;;;;4.28;1.92;;;;;;;;;;5040226;28;20053;-74
2022/07/14 06:33:27;;;;;;;4.47;1.92;;;;;;;;;;5040080;28;20022;-73
2022/07/14 06:35:53;;;;;;;3.83;1.70;;;;;;;;;;5023306;28;20086;-73
2022/07/14 06:38:19;;;;;;;3.58;1.63;;;;;;;;;;5040162;28;20074;-73
2022/07/14 06:40:45;;;;;;;3.42;1.63;;;;;;;;;;5040101;28;20021;-74
2022/07/14 06:43:11;;;;;;;2.97;1.60;;;;;;;;;;5040096;28;20026;-73
2022/07/14 06:45:37;;;;;;;3.65;1.58;;;;;;;;;;5039733;28;20034;-73
2022/07/14 06:48:03;;;;;;;3.00;1.40;;;;;;;;;;5039848;28;20026;-73
2022/07/14 06:50:29;;;;;;;2.92;1.70;;;;;;;;;;5023111;28;20022;-75
2022/07/14 06:52:55;;;;;;;5.60;1.77;;;;;;;;;;5039839;28;20022;-76
2022/07/14 06:55:21;;;;;;;4.40;1.63;;;;;;;;;;5039972;28;20025;-74
2022/07/14 06:57:47;;;;;;;3.40;1.70;;;;;;;;;;5039941;28;20010;-73
2022/07/14 07:00:14;;;;;;;5.78;1.60;;;;;;;;;;5039863;28;20014;-73
2022/07/14 07:02:41;;;;;;;3.55;1.40;;;;;;;;;;5039812;28;20029;-74
2022/07/14 07:07:52;;;;;;;2.47;1.42;;;;;;;;;;5039859;28;20022;-74
2022/07/14 07:10:18;;;;;;;4.57;1.48;;;;;;;;;;5039245;28;20021;-74
2022/07/14 07:12:44;;;;;;;3.22;1.50;;;;;;;;;;5039694;28;20026;-73
2022/07/14 07:15:10;;;;;;;3.88;1.50;;;;;;;;;;5039571;28;20102;-74
2022/07/14 07:17:37;;;;;;;5.00;1.50;;;;;;;;;;5022929;28;20029;-76
2022/07/14 07:20:03;;;;;;;3.00;1.30;;;;;;;;;;5039706;28;20022;-75
2022/07/14 07:22:29;;;;;;;3.13;1.85;;;;;;;;;;5039680;28;20041;-73
2022/07/14 07:24:56;;;;;;;3.63;1.60;;;;;;;;;;5039662;28;20073;-76
2022/07/14 07:27:22;;;;;;;2.63;1.50;;;;;;;;;;5039488;28;20082;-76
2022/07/14 07:29:48;;;;;;;2.17;1.15;;;;;;;;;;5022702;28;20033;-76
2022/07/14 07:32:14;;;;;;;4.93;1.70;;;;;;;;;;5039461;28;20026;-76
2022/07/14 07:34:40;;;;;;;3.90;1.95;;;;;;;;;;5039602;28;20078;-76
2022/07/14 07:37:06;;;;;;;3.28;1.63;;;;;;;;;;5022705;28;20025;-76
2022/07/14 07:39:34;;;;;;;4.68;1.85;;;;;;;;;;5022686;28;20033;-76
2022/07/14 07:42:01;;;;;;;3.85;1.50;;;;;;;;;;5039369;28;20022;-74
2022/07/14 07:44:28;;;;;;;6.85;1.63;;;;;;;;;;5039133;28;20022;-74
2022/07/14 07:46:54;;;;;;;3.55;1.60;;;;;;;;;;5039492;28;20022;-73
2022/07/14 07:49:20;;;;;;;4.75;1.73;;;;;;;;;;5006342;28;20057;-75
2022/07/14 07:51:46;;;;;;;3.88;2.03;;;;;;;;;;5022479;28;20030;-76
2022/07/14 07:54:12;;;;;;;2.63;1.48;;;;;;;;;;5039370;28;20025;-75
2022/07/14 07:56:38;;;;;;;4.35;1.73;;;;;;;;;;5039313;28;20073;-76
2022/07/14 07:59:04;;;;;;;4.18;1.60;;;;;;;;;;5006192;28;20029;-76
2022/07/14 08:01:30;;;;;;;2.75;1.38;;;;;;;;;;5039324;28;20014;-75
2022/07/14 08:03:56;;;;;;;4.22;1.70;;;;;;;;;;5022507;28;20061;-76
2022/07/14 08:06:22;;;;;;;5.05;1.75;;;;;;;;;;5039147;28;20018;-75
2022/07/14 08:08:48;;;;;;;3.05;1.40;;;;;;;;;;5039344;28;20032;-76
2022/07/14 08:11:14;;;;;;;4.80;1.90;;;;;;;;;;5022338;28;20078;-76
2022/07/14 08:13:40;;;;;;;2.83;1.60;;;;;;;;;;5039170;28;20029;-76
2022/07/14 08:16:07;;;;;;;3.75;1.42;;;;;;;;;;5039144;28;20065;-75
2022/07/14 08:18:33;;;;;;;3.42;1.33;;;;;;;;;;5039134;28;20018;-74
2022/07/14 08:20:59;;;;;;;3.60;1.58;;;;;;;;;;5023086;28;20010;-74
2022/07/14 08:23:26;;;;;;;4.10;1.55;;;;;;;;;;5042620;28;20017;-74
2022/07/14 08:25:52;;;;;;;2.67;1.48;;;;;;;;;;5025733;28;20077;-74
2022/07/14 08:28:19;;;;;;;5.28;1.50;;;;;;;;;;5042405;28;20029;-75
2022/07/14 08:30:45;;;;;;;3.72;2.00;;;;;;;;;;5042314;28;20018;-74
2022/07/14 08:33:11;;;;;;;4.28;1.40;;;;;;;;;;5042294;28;20026;-73
2022/07/14 08:35:37;;;;;;;3.47;1.48;;;;;;;;;;5042396;28;20045;-73
2022/07/14 08:38:03;;;;;;;4.32;1.48;;;;;;;;;;5042310;28;20010;-73
2022/07/14 08:40:29;;;;;;;3.20;1.38;;;;;;;;;;5042320;28;20025;-74
2022/07/14 08:42:56;;;;;;;3.45;1.50;;;;;;;;;;5042197;28;20052;-74
2022/07/14 08:45:24;;;;;;;3.58;1.60;;;;;;;;;;5041951;28;20033;-74
2022/07/14 08:47:50;;;;;;;3.05;1.30;;;;;;;;;;5042223;28;20041;-76
2022/07/14 08:50:20;;;;;;;3.30;1.50;;;;;;;;;;5042116;28;20049;-76
2022/07/14 08:52:47;;;;;;;3.83;1.80;;;;;;;;;;5042019;28;20057;-74
2022/07/14 08:55:14;;;;;;;2.90;1.40;;;;;;;;;;5008956;28;20017;-74
2022/07/14 08:57:41;;;;;;;2.72;1.30;;;;;;;;;;5041880;28;20022;-74
2022/07/14 09:00:12;;;;;;;3.45;1.60;;;;;;;;;;5041941;28;20037;-76
2022/07/14 09:02:39;;;;;;;4.43;1.65;;;;;;;;;;5041842;28;20029;-74
2022/07/14 09:05:06;;;;;;;4.97;2.10;;;;;;;;;;5041715;28;20014;-74
2022/07/14 09:07:33;;;;;;;3.05;1.70;;;;;;;;;;5041837;28;20021;-74
2022/07/14 09:10:10;;;;;;;4.90;1.60;;;;;;;;;;5024918;28;20070;-74
2022/07/14 09:12:36;;;;;;;6.80;1.88;;;;;;;;;;5040530;28;20029;-74
2022/07/14 09:17:52;;;;;;;3.10;1.23;;;;;;;;;;5040350;28;20034;-74
2022/07/14 09:20:18;;;;;;;5.82;1.73;;;;;;;;;;5039885;28;20050;-74
2022/07/14 09:22:44;;;;;;;2.47;1.45;;;;;;;;;;5040159;28;20050;-74
2022/07/14 09:25:19;;;;;;;3.53;1.70;;;;;;;;;;5023185;28;20041;-74
2022/07/14 09:27:46;;;;;;;8.38;2.15;;;;;;;;;;5040123;28;20089;-74
2022/07/14 09:30:13;;;;;;;3.60;1.40;;;;;;;;;;5039972;28;20030;-74
2022/07/14 09:32:51;;;;;;;3.13;1.60;;;;;;;;;;5039316;28;20064;-74
2022/07/14 09:35:19;;;;;;;5.47;1.83;;;;;;;;;;5039847;28;20056;-74
2022/07/14 09:37:46;;;;;;;2.97;1.60;;;;;;;;;;5039877;28;20057;-73
2022/07/14 09:40:29;;;;;;;2.95;1.50;;;;;;;;;;5039789;28;20038;-74
2022/07/14 09:42:58;;;;;;;2.55;1.52;;;;;;;;;;5039722;28;20089;-74
2022/07/14 09:45:26;;;;;;;4.63;1.65;;;;;;;;;;5039223;28;20066;-73
2022/07/14 09:47:59;;;;;;;2.70;1.70;;;;;;;;;;5039593;28;20057;-73
2022/07/14 09:50:32;;;;;;;3.10;1.40;;;;;;;;;;5039626;28;20033;-74
2022/07/14 09:52:58;;;;;;;3.60;1.70;;;;;;;;;;5039448;28;20029;-74
2022/07/14 09:55:24;;;;;;;2.72;1.80;;;;;;;;;;5039502;28;20022;-73
2022/07/14 09:57:51;;;;;;;5.70;1.90;;;;;;;;;;5039379;28;20080;-74
2022/07/14 10:00:19;;;;;;;4.50;2.00;;;;;;;;;;5022557;28;20056;-74
2022/07/14 10:02:46;;;;;;;2.38;1.40;;;;;;;;;;5039480;28;20037;-74
2022/07/14 10:05:12;;;;;;;2.20;1.17;;;;;;;;;;5039357;28;20093;-74
2022/07/14 10:07:41;;;;;;;4.85;1.80;;;;;;;;;;5022352;28;20113;-74
2022/07/14 10:10:07;;;;;;;2.28;1.58;;;;;;;;;;5039275;28;20034;-74
2022/07/14 10:12:33;;;;;;;3.53;1.60;;;;;;;;;;5038997;28;20041;-74
2022/07/14 10:15:02;;;;;;;2.78;1.50;;;;;;;;;;5039195;28;20029;-74
2022/07/14 10:17:32;;;;;;;3.53;1.63;;;;;;;;;;5039152;28;20030;-73
2022/07/14 10:19:58;;;;;;;4.32;1.88;;;;;;;;;;5039092;28;20037;-74
2022/07/14 10:22:24;;;;;;;4.72;1.73;;;;;;;;;;5038992;28;20060;-74
2022/07/14 10:24:50;;;;;;;4.35;1.90;;;;;;;;;;5038920;28;20030;-73
2022/07/14 10:27:19;;;;;;;5.55;1.83;;;;;;;;;;5038990;28;20038;-74
2022/07/14 10:29:49;;;;;;;2.67;1.73;;;;;;;;;;5038884;28;20057;-74
2022/07/14 10:32:15;;;;;;;4.07;1.90;;;;;;;;;;5038822;28;20034;-74
2022/07/14 10:35:03;;;;;;;4.80;1.67;;;;;;;;;;5038710;28;20101;-74
2022/07/14 10:37:35;;;;;;;5.45;1.58;;;;;;;;;;5038761;28;20065;-74
2022/07/14 10:40:03;;;;;;;4.15;1.60;;;;;;;;;;5021784;28;20092;-74
2022/07/14 10:42:41;;;;;;;6.10;1.88;;;;;;;;;;5038749;28;20048;-74
2022/07/14 10:45:07;;;;;;;4.63;1.77;;;;;;;;;;5037752;28;20106;-74
2022/07/14 10:47:47;;;;;;;2.85;1.50;;;;;;;;;;5038665;28;20044;-73
2022/07/14 10:50:14;;;;;;;4.10;1.90;;;;;;;;;;5038621;28;20045;-74
2022/07/14 10:52:55;;;;;;;3.25;1.33;;;;;;;;;;5038465;28;20026;-74
2022/07/14 10:55:27;;;;;;;4.43;1.90;;;;;;;;;;5038603;28;20093;-74
2022/07/14 10:57:59;;;;;;;4.10;1.85;;;;;;;;;;5021570;28;20038;-74
2022/07/14 11:00:44;;;;;;;3.10;1.60;;;;;;;;;;5038500;28;20041;-74
2022/07/14 11:03:24;;;;;;;2.58;1.50;;;;;;;;;;5038473;28;20029;-74
2022/07/14 11:05:59;;;;;;;4.70;2.10;;;;;;;;;;5038493;28;20034;-73
2022/07/14 11:08:26;;;;;;;3.78;1.58;;;;;;;;;;5038370;28;20021;-73
2022/07/14 11:10:55;;;;;;;3.42;1.50;;;;;;;;;;5038332;28;20060;-74
2022/07/14 11:13:21;;;;;;;5.28;1.50;;;;;;;;;;5038312;28;20045;-74
2022/07/14 11:15:51;;;;;;;3.85;1.42;;;;;;;;;;5038322;28;20026;-74
2022/07/14 11:18:28;;;;;;;2.67;1.60;;;;;;;;;;5038299;28;20088;-75
2022/07/14 11:21:00;;;;;;;3.67;1.40;;;;;;;;;;5021271;28;20114;-75
2022/07/14 11:23:29;;;;;;;2.75;1.35;;;;;;;;;;5038305;28;20053;-74
2022/07/14 11:25:56;;;;;;;3.20;1.60;;;;;;;;;;5038223;28;20033;-74
2022/07/14 11:28:37;;;;;;;4.05;1.63;;;;;;;;;;5038221;28;20044;-74
2022/07/14 11:31:11;;;;;;;3.05;1.60;;;;;;;;;;5038237;28;20033;-74
2022/07/14 11:36:17;;;;;;;2.60;1.70;;;;;;;;;;5038195;28;20056;-74
2022/07/14 11:36:24;;;;;;;2.20;1.30;;;;;;;;;;5038137;28;20038;-75
2022/07/14 11:38:50;;;;;;;2.72;1.48;;;;;;;;;;5038174;28;20034;-74
2022/07/14 11:41:16;;;;;;;6.20;1.52;;;;;;;;;;5038160;28;20049;-74
2022/07/14 11:43:46;;;;;;;2.13;1.52;;;;;;;;;;5038116;28;20033;-74
2022/07/14 11:46:14;;;;;;;3.97;1.80;;;;;;;;;;5037660;28;20054;-74
2022/07/14 11:48:40;;;;;;;3.13;1.70;;;;;;;;;;5037981;28;20034;-74
2022/07/14 11:51:08;;;;;;;2.92;1.63;;;;;;;;;;5038068;28;20038;-74
2022/07/14 11:53:34;;;;;;;3.40;1.80;;;;;;;;;;5037955;28;20053;-74
2022/07/14 11:56:01;;;;;;;7.65;2.00;;;;;;;;;;5040408;28;20032;-74
2022/07/14 11:58:29;;;;;;;3.50;1.42;;;;;;;;;;5041632;28;20026;-74
2022/07/14 12:00:55;;;;;;;2.80;1.63;;;;;;;;;;5024816;28;20038;-74
2022/07/14 12:03:21;;;;;;;8.63;1.65;;;;;;;;;;5041612;28;20049;-74
2022/07/14 12:05:52;;;;;;;4.82;1.50;;;;;;;;;;5041621;28;20030;-74
2022/07/14 12:08:22;;;;;;;3.63;1.60;;;;;;;;;;5041613;28;20038;-74
2022/07/14 12:10:49;;;;;;;4.78;1.38;;;;;;;;;;5041460;28;20030;-74
2022/07/14 12:13:16;;;;;;;3.28;1.35;;;;;;;;;;5041186;28;20080;-74
2022/07/14 12:15:42;;;;;;;5.15;1.60;;;;;;;;;;5041421;28;20034;-74
2022/07/14 12:18:09;;;;;;;5.03;2.67;;;;;;;;;;5041281;28;20022;-75
2022/07/14 12:20:37;;;;;;;3.90;1.38;;;;;;;;;;5041384;28;20030;-74
2022/07/14 12:23:03;;;;;;;3.85;1.60;;;;;;;;;;5041293;28;20029;-74
2022/07/14 12:25:31;;;;;;;2.45;1.40;;;;;;;;;;5024353;28;20022;-74
2022/07/14 12:27:58;;;;;;;5.30;1.80;;;;;;;;;;5041219;28;20117;-75
2022/07/14 12:30:24;;;;;;;4.10;1.95;;;;;;;;;;5041185;28;20086;-74
2022/07/14 12:32:54;;;;;;;4.15;1.80;;;;;;;;;;5040940;28;20049;-74
2022/07/14 12:35:23;;;;;;;3.33;1.58;;;;;;;;;;5041039;28;20117;-75
2022/07/14 12:37:51;;;;;;;2.65;1.40;;;;;;;;;;5041086;28;20030;-74
2022/07/14 12:40:18;;;;;;;4.22;1.52;;;;;;;;;;5040864;28;20128;-74
2022/07/14 12:42:45;;;;;;;3.10;1.67;;;;;;;;;;5040889;28;20021;-74
2022/07/14 12:45:11;;;;;;;4.70;1.60;;;;;;;;;;5040607;28;20048;-74
2022/07/14 12:47:51;;;;;;;3.90;1.88;;;;;;;;;;5040842;28;20045;-75
2022/07/14 12:50:24;;;;;;;5.47;1.90;;;;;;;;;;5040774;28;20030;-74
2022/07/14 12:52:54;;;;;;;5.03;1.58;;;;;;;;;;5040540;28;20030;-74
2022/07/14 12:55:44;;;;;;;3.15;1.60;;;;;;;;;;5040728;28;20022;-74
2022/07/14 12:58:11;;;;;;;4.47;1.67;;;;;;;;;;5040757;28;20029;-74
2022/07/14 13:00:39;;;;;;;3.28;1.55;;;;;;;;;;5040586;28;20038;-74
2022/07/14 13:03:13;;;;;;;4.50;1.42;;;;;;;;;;5040448;28;20030;-74
2022/07/14 13:05:48;;;;;;;9.55;2.00;;;;;;;;;;5040438;28;20030;-74
2022/07/14 13:08:33;;;;;;;3.53;1.65;;;;;;;;;;5039709;28;20038;-74
2022/07/14 13:11:00;;;;;;;3.03;1.40;;;;;;;;;;5040370;28;20118;-74
2022/07/14 13:13:28;;;;;;;5.55;2.28;;;;;;;;;;5040132;28;20065;-74
2022/07/14 13:16:13;;;;;;;5.70;2.05;;;;;;;;;;5040319;28;20026;-74
2022/07/14 13:18:59;;;;;;;4.72;1.58;;;;;;;;;;5040208;28;20033;-74
2022/07/14 13:21:44;;;;;;;5.40;1.70;;;;;;;;;;5040160;28;20049;-74
2022/07/14 13:24:14;;;;;;;3.08;1.70;;;;;;;;;;5040100;28;20064;-74
2022/07/14 13:26:40;;;;;;;3.58;1.65;;;;;;;;;;5040050;28;20085;-74
2022/07/14 13:29:06;;;;;;;5.03;1.80;;;;;;;;;;5039975;28;20026;-74
2022/07/14 13:31:32;;;;;;;3.72;1.45;;;;;;;;;;5039830;28;20026;-74
2022/07/14 13:34:01;;;;;;;4.85;1.60;;;;;;;;;;5039931;28;20093;-74
2022/07/14 13:36:28;;;;;;;5.57;1.83;;;;;;;;;;5022905;28;20030;-74
2022/07/14 13:38:55;;;;;;;3.15;1.50;;;;;;;;;;5023003;28;20025;-74
2022/07/14 13:41:24;;;;;;;3.75;1.55;;;;;;;;;;5039803;28;20054;-74
2022/07/14 13:43:58;;;;;;;3.25;1.50;;;;;;;;;;5039734;28;20081;-74
2022/07/14 13:46:24;;;;;;;5.30;1.73;;;;;;;;;;5039531;28;20048;-75
2022/07/14 13:48:50;;;;;;;5.32;1.52;;;;;;;;;;5039653;28;20057;-74
2022/07/14 13:54:01;;;;;;;3.65;1.80;;;;;;;;;;5039605;28;20048;-74
2022/07/14 13:56:28;;;;;;;4.65;1.80;;;;;;;;;;5039562;28;20049;-74
2022/07/14 13:58:54;;;;;;;5.45;1.60;;;;;;;;;;5039485;28;20032;-74
2022/07/14 14:01:20;;;;;;;6.13;1.90;;;;;;;;;;5039380;28;20028;-74
2022/07/14 14:03:47;;;;;;;3.55;1.80;;;;;;;;;;5039281;28;20034;-74
2022/07/14 14:06:14;;;;;;;6.25;1.98;;;;;;;;;;5039244;28;20034;-74
2022/07/14 14:08:40;;;;;;;4.10;1.67;;;;;;;;;;5039295;28;20036;-74
2022/07/14 14:11:07;;;;;;;6.95;2.03;;;;;;;;;;5039247;28;20121;-73
2022/07/14 14:13:33;;;;;;;2.97;1.70;;;;;;;;;;5039192;28;20038;-74
2022/07/14 14:16:00;;;;;;;4.60;1.90;;;;;;;;;;5022170;28;20045;-74
2022/07/14 14:18:29;;;;;;;4.90;2.00;;;;;;;;;;5039086;28;20049;-74
2022/07/14 14:20:56;;;;;;;5.78;1.90;;;;;;;;;;5022332;28;20030;-74
2022/07/14 14:23:22;;;;;;;4.88;2.30;;;;;;;;;;5039048;28;20026;-74
2022/07/14 14:25:48;;;;;;;6.75;2.20;;;;;;;;;;5039086;28;20089;-74
2022/07/14 14:28:14;;;;;;;5.40;2.03;;;;;;;;;;5039006;28;20032;-74
2022/07/14 14:30:41;;;;;;;4.68;2.20;;;;;;;;;;5038823;28;20030;-74
2022/07/14 14:33:07;;;;;;;5.93;2.15;;;;;;;;;;5038845;28;20089;-74
2022/07/14 14:35:33;;;;;;;4.10;2.30;;;;;;;;;;5038800;28;20042;-74
2022/07/14 14:38:02;;;;;;;7.55;2.40;;;;;;;;;;5038824;28;20057;-74
2022/07/14 14:40:29;;;;;;;6.57;2.33;;;;;;;;;;5038806;28;20061;-74
2022/07/14 14:42:55;;;;;;;3.38;2.03;;;;;;;;;;5038732;28;20098;-75
2022/07/14 14:45:21;;;;;;;7.97;2.35;;;;;;;;;;5038446;28;20042;-74
2022/07/14 14:47:47;;;;;;;4.97;2.30;;;;;;;;;;5038679;28;20030;-74
2022/07/14 14:50:13;;;;;;;9.40;3.10;;;;;;;;;;5038600;28;20042;-74
2022/07/14 14:52:39;;;;;;;7.63;3.10;;;;;;;;;;5038586;28;20094;-74
2022/07/14 14:55:06;;;;;;;7.68;3.10;;;;;;;;;;5038606;28;20038;-74
2022/07/14 14:57:34;;;;;;;7.03;2.97;;;;;;;;;;5038495;28;20060;-74
2022/07/14 15:00:03;;;;;;;7.35;3.30;;;;;;;;;;5038431;28;20093;-74